createdAt,value
2019-04-07T00:00:59.721Z,97797.63
2019-04-07T00:03:30.635Z,97789.35
2019-04-07T00:06:05.341Z,97788.50
2019-04-07T00:08:36.656Z,97790.52
2019-04-07T00:11:16.254Z,97779.30
2019-04-07T00:13:48.137Z,97789.58
2019-04-07T00:16:24.279Z,97781.67
2019-04-07T00:18:55.769Z,97793.73
2019-04-07T00:21:37.389Z,97791.59
2019-04-07T00:24:04.689Z,97791.82
2019-04-07T00:26:35.957Z,97798.83
2019-04-07T00:29:07.360Z,97794.67
2019-04-07T00:31:38.718Z,97799.53
2019-04-07T00:34:10.833Z,97800.95
2019-04-07T00:36:42.287Z,97799.19
2019-04-07T00:39:14.805Z,97800.14
2019-04-07T00:41:46.468Z,97797.16
2019-04-07T00:44:18.952Z,97796.23
2019-04-07T00:46:51.020Z,97801.06
2019-04-07T00:49:22.822Z,97798.32
2019-04-07T00:51:55.472Z,97808.64
2019-04-07T00:54:28.020Z,97802.03
2019-04-07T00:56:59.689Z,97796.45
2019-04-07T00:59:31.983Z,97794.22
2019-04-07T01:02:03.790Z,97797.16
2019-04-07T01:04:35.356Z,97791.25
2019-04-07T01:07:08.123Z,97786.97
2019-04-07T01:09:39.917Z,97775.61
2019-04-07T01:12:11.514Z,97783.19
2019-04-07T01:14:43.416Z,97784.85
2019-04-07T01:17:16.476Z,97785.90
2019-04-07T01:19:48.626Z,97776.19
2019-04-07T01:22:20.770Z,97773.48
2019-04-07T01:24:52.660Z,97776.56
2019-04-07T01:27:25.811Z,97777.16
2019-04-07T01:29:57.736Z,97785.58
2019-04-07T01:32:30.123Z,97779.64
2019-04-07T01:35:02.988Z,97781.31
2019-04-07T01:37:35.227Z,97757.75
2019-04-07T01:40:09.093Z,97757.39
2019-04-07T01:42:58.856Z,97760.72
2019-04-07T01:46:05.253Z,97764.95
2019-04-07T01:48:53.341Z,97764.03
2019-04-07T01:51:46.485Z,97757.63
2019-04-07T01:54:36.217Z,97760.81
2019-04-07T01:57:25.689Z,97761.89
2019-04-07T02:00:12.658Z,97755.41
2019-04-07T02:03:01.072Z,97753.00
2019-04-07T02:05:59.192Z,97755.38
2019-04-07T02:08:35.296Z,97747.20
2019-04-07T02:11:40.884Z,97741.42
2019-04-07T02:14:30.273Z,97739.39
2019-04-07T02:17:13.932Z,97736.79
2019-04-07T02:20:11.272Z,97729.11
2019-04-07T02:23:05.186Z,97736.06
2019-04-07T02:25:54.112Z,97730.64
2019-04-07T02:28:42.066Z,97730.89
2019-04-07T02:31:38.683Z,97735.27
2019-04-07T02:34:22.613Z,97726.52
2019-04-07T02:37:04.538Z,97724.63
2019-04-07T02:39:54.797Z,97720.95
2019-04-07T02:43:12.432Z,97722.83
2019-04-07T02:46:21.482Z,97727.07
2019-04-07T02:49:10.884Z,97736.78
2019-04-07T02:52:11.123Z,97725.66
2019-04-07T02:55:04.596Z,97734.44
2019-04-07T02:57:49.432Z,97725.92
2019-04-07T03:00:31.810Z,97721.78
2019-04-07T03:03:24.936Z,97717.27
2019-04-07T03:06:04.973Z,97714.89
2019-04-07T03:08:47.906Z,97715.75
2019-04-07T03:11:53.560Z,97704.16
2019-04-07T03:14:31.355Z,97699.44
2019-04-07T03:17:10.493Z,97697.45
2019-04-07T03:20:00.821Z,97696.73
2019-04-07T03:22:47.464Z,97695.70
2019-04-07T03:25:38.661Z,97692.48
2019-04-07T03:28:34.863Z,97692.39
2019-04-07T03:31:32.182Z,97689.69
2019-04-07T03:34:24.096Z,97689.31
2019-04-07T03:37:30.417Z,97694.38
2019-04-07T03:40:02.570Z,97701.57
2019-04-07T03:42:56.118Z,97708.87
2019-04-07T03:45:45.506Z,97695.41
2019-04-07T03:48:24.674Z,97697.20
2019-04-07T03:51:21.287Z,97697.92
2019-04-07T03:54:08.959Z,97695.66
2019-04-07T03:56:57.018Z,97693.86
2019-04-07T03:59:53.197Z,97695.29
2019-04-07T04:02:55.399Z,97691.64
2019-04-07T04:05:45.472Z,97690.55
2019-04-07T04:08:31.733Z,97694.92
2019-04-07T04:11:20.420Z,97685.45
2019-04-07T04:14:04.722Z,97688.84
2019-04-07T04:16:55.004Z,97688.25
2019-04-07T04:19:27.532Z,97685.90
2019-04-07T04:21:59.165Z,97689.92
2019-04-07T04:24:30.653Z,97691.02
2019-04-07T04:27:02.080Z,97699.39
2019-04-07T04:29:33.473Z,97695.58
2019-04-07T04:32:05.787Z,97697.59
2019-04-07T04:34:38.914Z,97694.61
2019-04-07T04:37:11.178Z,97691.30
2019-04-07T04:39:43.042Z,97693.44
2019-04-07T04:42:14.833Z,97691.80
2019-04-07T04:44:47.769Z,97696.55
2019-04-07T04:47:19.278Z,97706.48
2019-04-07T04:49:50.790Z,97696.84
2019-04-07T04:52:22.521Z,97697.92
2019-04-07T04:54:54.853Z,97692.01
2019-04-07T04:57:27.121Z,97685.41
2019-04-07T04:59:59.241Z,97679.84
2019-04-07T05:02:30.843Z,97681.39
2019-04-07T05:05:02.641Z,97677.86
2019-04-07T05:07:48.782Z,97678.09
2019-04-07T05:10:08.132Z,97677.27
2019-04-07T05:12:40.294Z,97679.27
2019-04-07T05:15:12.024Z,97680.10
2019-04-07T05:17:44.577Z,97683.27
2019-04-07T05:20:16.301Z,97685.73
2019-04-07T05:22:58.641Z,97690.03
2019-04-07T05:25:30.183Z,97694.17
2019-04-07T05:28:04.728Z,97690.14
2019-04-07T05:30:36.554Z,97703.89
2019-04-07T05:33:12.366Z,97701.95
2019-04-07T05:35:44.143Z,97702.52
2019-04-07T05:41:10.722Z,97706.63
2019-04-07T05:43:42.705Z,97706.44
2019-04-07T05:46:14.863Z,97709.14
2019-04-07T05:48:53.007Z,97705.73
2019-04-07T05:51:25.036Z,97705.70
2019-04-07T05:53:59.387Z,97704.25
2019-04-07T05:56:33.708Z,97707.48
2019-04-07T05:59:11.644Z,97707.42
2019-04-07T06:01:42.821Z,97709.89
2019-04-07T06:04:18.607Z,97715.56
2019-04-07T06:06:53.521Z,97716.59
2019-04-07T06:09:33.835Z,97715.02
2019-04-07T06:12:07.964Z,97720.78
2019-04-07T06:14:38.853Z,97721.30
2019-04-07T06:17:10.847Z,97717.30
2019-04-07T06:20:03.688Z,97718.48
2019-04-07T06:22:35.767Z,97719.80
2019-04-07T06:25:07.584Z,97723.47
2019-04-07T06:27:39.413Z,97717.05
2019-04-07T06:30:15.085Z,97718.09
2019-04-07T06:32:47.276Z,97719.72
2019-04-07T06:35:22.464Z,97723.12
2019-04-07T06:37:55.776Z,97726.05
2019-04-07T06:40:30.575Z,97716.08
2019-04-07T06:43:05.271Z,97725.38
2019-04-07T06:45:59.749Z,97724.59
2019-04-07T06:48:32.047Z,97726.35
2019-04-07T06:51:10.788Z,97725.90
2019-04-07T06:54:06.908Z,97726.39
2019-04-07T06:56:46.813Z,97731.81
2019-04-07T06:59:32.087Z,97725.08
2019-04-07T07:02:20.871Z,97726.02
2019-04-07T07:05:23.625Z,97720.11
2019-04-07T07:08:21.890Z,97722.41
2019-04-07T07:11:09.749Z,97726.44
2019-04-07T07:14:00.681Z,97724.81
2019-04-07T07:17:03.313Z,97724.16
2019-04-07T07:20:04.659Z,97726.88
2019-04-07T07:22:49.631Z,97722.71
2019-04-07T07:25:21.649Z,97724.29
2019-04-07T07:27:53.395Z,97713.77
2019-04-07T07:30:26.036Z,97719.80
2019-04-07T07:32:58.001Z,97724.70
2019-04-07T07:35:29.825Z,97719.38
2019-04-07T07:38:01.596Z,97717.75
2019-04-07T07:40:34.948Z,97719.03
2019-04-07T07:43:06.582Z,97721.41
2019-04-07T07:45:42.853Z,97724.95
2019-04-07T07:48:12.246Z,97725.14
2019-04-07T07:50:44.609Z,97733.34
2019-04-07T07:53:16.929Z,97733.35
2019-04-07T07:55:49.683Z,97737.65
2019-04-07T07:58:21.396Z,97736.38
2019-04-07T08:00:53.131Z,97744.39
2019-04-07T08:03:24.879Z,97737.59
2019-04-07T08:05:56.604Z,97760.37
2019-04-07T08:08:28.741Z,97748.27
2019-04-07T08:11:07.330Z,97746.22
2019-04-07T08:13:43.927Z,97747.36
2019-04-07T08:16:16.466Z,97745.83
2019-04-07T08:18:48.679Z,97751.73
2019-04-07T08:21:26.936Z,97744.42
2019-04-07T08:23:59.045Z,97738.08
2019-04-07T08:26:37.141Z,97750.02
2019-04-07T08:29:11.635Z,97753.70
2019-04-07T08:31:55.197Z,97755.31
2019-04-07T08:34:25.488Z,97753.77
2019-04-07T08:36:58.473Z,97762.87
2019-04-07T08:39:34.080Z,97753.54
2019-04-07T08:42:11.160Z,97776.04
2019-04-07T08:44:44.113Z,97790.30
2019-04-07T08:47:22.133Z,97787.02
2019-04-07T08:49:55.357Z,97778.75
2019-04-07T08:52:27.142Z,97783.88
2019-04-07T08:54:58.673Z,97786.80
2019-04-07T08:57:43.410Z,97792.63
2019-04-07T09:00:21.424Z,97789.13
2019-04-07T09:03:01.823Z,97783.41
2019-04-07T09:05:29.759Z,97794.41
2019-04-07T09:08:03.587Z,97788.91
2019-04-07T09:10:40.512Z,97788.33
2019-04-07T09:13:12.190Z,97792.77
2019-04-07T09:15:52.229Z,97795.89
2019-04-07T09:18:29.795Z,97783.33
2019-04-07T09:21:41.374Z,97789.22
2019-04-07T09:24:35.976Z,97795.28
2019-04-07T09:27:18.567Z,97794.39
2019-04-07T09:30:10.156Z,97796.59
2019-04-07T09:33:00.218Z,97794.47
2019-04-07T09:35:50.914Z,97797.16
2019-04-07T09:39:02.634Z,97793.41
2019-04-07T09:41:45.598Z,97789.30
2019-04-07T09:44:33.968Z,97786.78
2019-04-07T09:47:27.703Z,97790.33
2019-04-07T09:50:28.549Z,97793.65
2019-04-07T09:53:19.553Z,97790.87
2019-04-07T09:56:13.764Z,97785.28
2019-04-07T09:59:00.548Z,97785.59
2019-04-07T10:01:44.580Z,97790.47
2019-04-07T10:04:29.305Z,97795.06
2019-04-07T10:07:16.170Z,97797.87
2019-04-07T10:10:14.791Z,97797.98
2019-04-07T10:13:12.368Z,97796.11
2019-04-07T10:15:55.013Z,97792.00
2019-04-07T10:18:54.555Z,97795.20
2019-04-07T10:21:44.980Z,97792.09
2019-04-07T10:24:35.712Z,97786.54
2019-04-07T10:27:27.497Z,97795.69
2019-04-07T10:30:14.621Z,97800.27
2019-04-07T10:33:04.205Z,97809.24
2019-04-07T10:35:55.006Z,97803.90
2019-04-07T10:38:42.570Z,97804.87
2019-04-07T10:41:46.425Z,97803.58
2019-04-07T10:44:32.494Z,97795.48
2019-04-07T10:47:17.142Z,97798.70
2019-04-07T10:50:08.951Z,97802.81
2019-04-07T10:52:59.234Z,97795.74
2019-04-07T10:55:40.570Z,97792.63
2019-04-07T10:58:24.792Z,97795.80
2019-04-07T11:01:14.523Z,97796.52
2019-04-07T11:04:23.981Z,97788.41
2019-04-07T11:07:20.488Z,97798.22
2019-04-07T11:10:12.545Z,97797.84
2019-04-07T11:13:08.677Z,97796.80
2019-04-07T11:16:00.301Z,97788.70
2019-04-07T11:18:50.837Z,97797.00
2019-04-07T11:21:44.088Z,97789.37
2019-04-07T11:24:35.712Z,97793.84
2019-04-07T11:27:14.860Z,97791.63
2019-04-07T11:30:05.763Z,97793.58
2019-04-07T11:32:49.983Z,97783.71
2019-04-07T11:35:53.241Z,97786.33
2019-04-07T11:38:39.425Z,97780.88
2019-04-07T11:41:28.866Z,97790.14
2019-04-07T11:44:25.408Z,97783.64
2019-04-07T11:47:12.396Z,97783.66
2019-04-07T11:49:51.785Z,97781.62
2019-04-07T11:52:49.328Z,97783.37
2019-04-07T11:55:45.513Z,97784.66
2019-04-07T11:58:38.763Z,97783.83
2019-04-07T12:01:32.875Z,97780.55
2019-04-07T12:04:22.313Z,97775.23
2019-04-07T12:07:09.994Z,97774.09
2019-04-07T12:09:52.233Z,97774.95
2019-04-07T12:12:47.290Z,97767.20
2019-04-07T12:15:36.497Z,97770.11
2019-04-07T12:18:27.857Z,97783.41
2019-04-07T12:21:20.759Z,97771.44
2019-04-07T12:24:30.635Z,97769.52
2019-04-07T12:27:24.025Z,97767.22
2019-04-07T12:30:18.286Z,97763.67
2019-04-07T12:32:58.413Z,97778.19
2019-04-07T12:35:51.610Z,97777.53
2019-04-07T12:38:50.981Z,97767.51
2019-04-07T12:41:44.803Z,97773.98
2019-04-07T12:44:30.029Z,97773.75
2019-04-07T12:47:17.147Z,97775.05
2019-04-07T12:50:21.613Z,97771.89
2019-04-07T12:53:33.543Z,97777.70
2019-04-07T12:56:26.431Z,97779.96
2019-04-07T12:59:18.272Z,97794.54
2019-04-07T13:02:15.434Z,97785.38
2019-04-07T13:05:06.895Z,97774.91
2019-04-07T13:08:15.030Z,97787.18
2019-04-07T13:11:07.551Z,97779.00
2019-04-07T13:13:43.935Z,97785.84
2019-04-07T13:16:34.942Z,97780.77
2019-04-07T13:19:32.070Z,97781.90
2019-04-07T13:22:32.525Z,97780.81
2019-04-07T13:25:22.570Z,97777.36
2019-04-07T13:28:15.303Z,97789.45
2019-04-07T13:31:04.911Z,97779.06
2019-04-07T13:34:01.665Z,97771.98
2019-04-07T13:36:51.895Z,97776.86
2019-04-07T13:39:46.413Z,97778.64
2019-04-07T13:42:31.160Z,97776.13
2019-04-07T13:45:21.601Z,97781.63
2019-04-07T13:48:05.540Z,97771.98
2019-04-07T13:51:13.626Z,97776.30
2019-04-07T13:54:08.022Z,97776.13
2019-04-07T13:57:15.542Z,97778.41
2019-04-07T14:00:06.432Z,97776.00
2019-04-07T14:03:06.003Z,97777.36
2019-04-07T14:06:01.158Z,97777.10
2019-04-07T14:08:50.626Z,97775.08
2019-04-07T14:11:53.461Z,97772.25
2019-04-07T14:14:31.446Z,97778.33
2019-04-07T14:17:28.384Z,97780.05
2019-04-07T14:20:24.534Z,97764.33
2019-04-07T14:23:13.779Z,97758.44
2019-04-07T14:26:03.364Z,97766.36
2019-04-07T14:28:41.237Z,97763.53
2019-04-07T14:31:30.987Z,97756.64
2019-04-07T14:34:23.021Z,97753.77
2019-04-07T14:37:26.404Z,97754.66
2019-04-07T14:40:26.406Z,97756.14
2019-04-07T14:43:25.859Z,97749.14
2019-04-07T14:46:24.341Z,97757.28
2019-04-07T14:49:20.952Z,97749.56
2019-04-07T14:52:10.938Z,97752.80
2019-04-07T14:55:01.451Z,97764.02
2019-04-07T14:57:53.570Z,97760.80
2019-04-07T15:00:43.919Z,97753.67
2019-04-07T15:03:16.983Z,97749.80
2019-04-07T15:05:50.642Z,97751.08
2019-04-07T15:08:37.500Z,97752.02
2019-04-07T15:11:25.630Z,97747.75
2019-04-07T15:14:04.169Z,97750.65
2019-04-07T15:16:38.217Z,97747.51
2019-04-07T15:19:10.193Z,97748.11
2019-04-07T15:21:43.329Z,97742.06
2019-04-07T15:24:16.561Z,97741.50
2019-04-07T15:26:50.098Z,97743.21
2019-04-07T15:29:23.138Z,97735.87
2019-04-07T15:31:56.036Z,97732.66
2019-04-07T15:34:28.599Z,97731.32
2019-04-07T15:37:00.920Z,97729.35
2019-04-07T15:39:33.001Z,97736.60
2019-04-07T15:42:24.656Z,97733.56
2019-04-07T15:44:48.946Z,97734.66
2019-04-07T15:47:22.055Z,97725.52
2019-04-07T15:49:59.540Z,97735.16
2019-04-07T15:52:29.560Z,97726.27
2019-04-07T15:55:06.261Z,97730.36
2019-04-07T15:57:38.091Z,97738.45
2019-04-07T16:00:11.136Z,97734.37
2019-04-07T16:02:53.315Z,97746.73
2019-04-07T16:05:26.760Z,97743.44
2019-04-07T16:08:01.016Z,97746.94
2019-04-07T16:10:33.726Z,97741.25
2019-04-07T16:13:06.706Z,97746.27
2019-04-07T16:15:38.769Z,97752.86
2019-04-07T16:18:10.688Z,97743.41
2019-04-07T16:20:43.537Z,97746.22
2019-04-07T16:23:18.311Z,97746.02
2019-04-07T16:25:49.435Z,97752.42
2019-04-07T16:28:22.858Z,97756.11
2019-04-07T16:30:54.640Z,97753.77
2019-04-07T16:33:27.256Z,97752.95
2019-04-07T16:36:06.729Z,97762.66
2019-04-07T16:38:39.606Z,97753.09
2019-04-07T16:41:14.149Z,97749.31
2019-04-07T16:43:47.307Z,97746.14
2019-04-07T16:46:24.355Z,97754.03
2019-04-07T16:48:55.550Z,97755.05
2019-04-07T16:51:30.006Z,97759.16
2019-04-07T16:54:01.574Z,97755.70
2019-04-07T16:56:34.501Z,97758.63
2019-04-07T16:59:12.391Z,97752.37
2019-04-07T17:01:45.497Z,97753.61
2019-04-07T17:04:19.029Z,97754.84
2019-04-07T17:07:00.266Z,97757.80
2019-04-07T17:09:33.416Z,97755.64
2019-04-07T17:12:11.599Z,97760.08
2019-04-07T17:14:44.843Z,97760.23
2019-04-07T17:17:20.811Z,97766.72
2019-04-07T17:19:51.290Z,97768.84
2019-04-07T17:22:23.190Z,97767.29
2019-04-07T17:24:58.242Z,97777.86
2019-04-07T17:27:30.389Z,97781.69
2019-04-07T17:30:03.045Z,97786.86
2019-04-07T17:32:35.902Z,97785.84
2019-04-07T17:35:17.195Z,97784.11
2019-04-07T17:37:47.977Z,97790.25
2019-04-07T17:40:24.590Z,97790.80
2019-04-07T17:42:58.079Z,97790.36
2019-04-07T17:45:55.920Z,97793.55
2019-04-07T17:48:57.390Z,97787.35
2019-04-07T17:51:45.729Z,97790.69
2019-04-07T17:54:37.013Z,97791.82
2019-04-07T17:57:29.254Z,97798.23
2019-04-07T18:00:21.579Z,97803.66
2019-04-07T18:03:08.860Z,97812.95
2019-04-07T18:06:00.411Z,97813.31
2019-04-07T18:09:06.181Z,97817.17
2019-04-07T18:12:06.808Z,97830.42
2019-04-07T18:15:04.698Z,97831.78
2019-04-07T18:17:56.074Z,97841.17
2019-04-07T18:21:02.007Z,97849.45
2019-04-07T18:23:55.623Z,97850.97
2019-04-07T18:26:38.393Z,97857.48
2019-04-07T18:29:31.894Z,97859.73
2019-04-07T18:32:31.851Z,97864.27
2019-04-07T18:35:26.436Z,97870.58
2019-04-07T18:38:15.182Z,97877.82
2019-04-07T18:41:11.170Z,97878.80
2019-04-07T18:44:02.498Z,97890.47
2019-04-07T18:46:52.358Z,97892.09
2019-04-07T18:49:46.464Z,97896.61
2019-04-07T18:52:39.088Z,97903.99
2019-04-07T18:55:30.025Z,97906.38
2019-04-07T18:58:24.740Z,97913.05
2019-04-07T19:01:16.968Z,97913.05
2019-04-07T19:04:26.572Z,97917.11
2019-04-07T19:07:24.954Z,97918.83
2019-04-07T19:10:21.222Z,97930.15
2019-04-07T19:13:14.623Z,97939.33
2019-04-07T19:16:10.981Z,97940.39
2019-04-07T19:19:18.102Z,97942.46
2019-04-07T19:22:01.342Z,97943.30
2019-04-07T19:25:05.175Z,97953.38
2019-04-07T19:27:48.323Z,97956.91
2019-04-07T19:30:46.157Z,97966.61
2019-04-07T19:33:42.699Z,97968.72
2019-04-07T19:36:35.128Z,97974.45
2019-04-07T19:39:39.360Z,97972.58
2019-04-07T19:42:34.927Z,97973.19
2019-04-07T19:45:22.896Z,97982.28
2019-04-07T19:48:18.138Z,97977.77
2019-04-07T19:51:15.446Z,97973.14
2019-04-07T19:54:16.030Z,97973.31
2019-04-07T19:57:23.651Z,97974.99
2019-04-07T20:00:21.499Z,97979.14
2019-04-07T20:03:13.319Z,97975.63
2019-04-07T20:06:03.161Z,97976.70
2019-04-07T20:08:53.476Z,97972.95
2019-04-07T20:11:48.005Z,97970.34
2019-04-07T20:14:49.340Z,97974.17
2019-04-07T20:17:43.106Z,97973.63
2019-04-07T20:20:44.682Z,97969.30
2019-04-07T20:23:51.069Z,97972.86
2019-04-07T20:26:43.087Z,97967.86
2019-04-07T20:29:32.492Z,97965.75
2019-04-07T20:32:26.236Z,97968.22
2019-04-07T20:35:18.711Z,97973.02
2019-04-07T20:38:07.863Z,97968.75
2019-04-07T20:41:05.373Z,97967.07
2019-04-07T20:43:53.964Z,97967.87
2019-04-07T20:46:45.615Z,97968.08
2019-04-07T20:49:41.177Z,97968.08
2019-04-07T20:52:31.988Z,97965.39
2019-04-07T20:55:19.836Z,97973.54
2019-04-07T20:58:43.759Z,97977.31
2019-04-07T21:01:27.598Z,97971.98
2019-04-07T21:04:14.951Z,97973.66
2019-04-07T21:07:05.936Z,97968.80
2019-04-07T21:10:14.361Z,97964.77
2019-04-07T21:12:54.813Z,97967.03
2019-04-07T21:15:48.329Z,97968.33
2019-04-07T21:18:42.287Z,97965.59
2019-04-07T21:21:52.584Z,97968.86
2019-04-07T21:24:40.524Z,97965.49
2019-04-07T21:27:42.893Z,97967.70
2019-04-07T21:30:36.781Z,97964.03
2019-04-07T21:33:34.526Z,97965.52
2019-04-07T21:36:41.409Z,97962.41
2019-04-07T21:39:29.484Z,97960.39
2019-04-07T21:42:28.909Z,97960.97
2019-04-07T21:45:35.416Z,97958.49
2019-04-07T21:48:23.448Z,97950.19
2019-04-07T21:51:16.436Z,97959.14
2019-04-07T21:54:09.849Z,97954.98
2019-04-07T21:57:11.149Z,97950.64
2019-04-07T22:00:04.986Z,97948.16
2019-04-07T22:02:49.246Z,97949.78
2019-04-07T22:05:30.098Z,97951.24
2019-04-07T22:08:15.988Z,97950.16
2019-04-07T22:10:47.913Z,97948.25
2019-04-07T22:13:19.574Z,97951.66
2019-04-07T22:15:56.266Z,97951.95
2019-04-07T22:18:25.652Z,97955.00
2019-04-07T22:20:57.142Z,97956.47
2019-04-07T22:23:33.763Z,97958.12
2019-04-07T22:26:10.674Z,97957.22
2019-04-07T22:28:39.526Z,97951.03
2019-04-07T22:31:14.616Z,97951.98
2019-04-07T22:33:46.606Z,97954.33
2019-04-07T22:36:18.863Z,97958.98
2019-04-07T22:38:54.363Z,97957.84
2019-04-07T22:41:25.021Z,97961.28
2019-04-07T22:43:57.458Z,97962.16
2019-04-07T22:46:29.349Z,97962.38
2019-04-07T22:49:01.419Z,97968.56
2019-04-07T22:51:33.038Z,97969.75
2019-04-07T22:54:05.760Z,97970.48
2019-04-07T22:56:39.345Z,97964.91
2019-04-07T22:59:11.889Z,97968.45
2019-04-07T23:01:44.473Z,97965.17
2019-04-07T23:04:16.099Z,97971.16
2019-04-07T23:06:48.084Z,97970.28
2019-04-07T23:09:20.369Z,97968.86
2019-04-07T23:11:52.415Z,97971.95
2019-04-07T23:14:25.379Z,97969.77
2019-04-07T23:16:57.042Z,97968.98
2019-04-07T23:19:35.624Z,97971.24
2019-04-07T23:22:07.821Z,97972.43
2019-04-07T23:24:45.954Z,97966.20
2019-04-07T23:27:18.092Z,97966.42
2019-04-07T23:29:57.169Z,97967.21
2019-04-07T23:32:28.697Z,97968.87
2019-04-07T23:35:10.325Z,97969.19
2019-04-07T23:37:43.090Z,97969.81
2019-04-07T23:40:20.853Z,97968.13
2019-04-07T23:42:53.014Z,97967.78
2019-04-07T23:45:32.235Z,97969.08
2019-04-07T23:48:04.884Z,97969.60
2019-04-07T23:50:39.566Z,97968.23
2019-04-07T23:54:04.406Z,97970.33
2019-04-07T23:56:39.474Z,97968.30
2019-04-07T23:59:12.114Z,97963.16
